sensor_id;sensor_type;location;lat;lon;timestamp;pressure;altitude;pressure_sealevel;temperature;humidity
11198;BME280;5655;48.744;9.162;2023-05-12T00:02:24;95739.00;;;12.55;100.00
11198;BME280;5655;48.744;9.162;2023-05-12T00:04:50;95743.53;;;12.65;100.00
11198;BME280;5655;48.744;9.162;2023-05-12T00:07:16;95741.69;;;12.52;100.00
11198;BME280;5655;48.744;9.162;2023-05-12T00:09:41;95742.81;;;12.58;100.00
11198;BME280;5655;48.744;9.162;2023-05-12T00:12:07;95735.19;;;12.49;100.00
11198;BME280;5655;48.744;9.162;2023-05-12T00:14:34;95743.97;;;12.57;100.00
11198;BME280;5655;48.744;9.162;2023-05-12T00:17:00;95746.66;;;12.57;100.00
11198;BME280;5655;48.744;9.162;2023-05-12T00:19:25;95745.06;;;12.70;100.00
11198;BME280;5655;48.744;9.162;2023-05-12T00:21:50;95739.28;;;12.75;100.00
11198;BME280;5655;48.744;9.162;2023-05-12T00:24:16;95737.06;;;12.56;100.00
11198;BME280;5655;48.744;9.162;2023-05-12T00:26:41;95741.31;;;12.50;100.00
11198;BME280;5655;48.744;9.162;2023-05-12T00:29:06;95748.13;;;12.65;100.00
11198;BME280;5655;48.744;9.162;2023-05-12T00:31:32;95745.50;;;12.58;100.00
11198;BME280;5655;48.744;9.162;2023-05-12T00:33:57;95745.84;;;12.60;100.00
11198;BME280;5655;48.744;9.162;2023-05-12T00:36:23;95742.03;;;12.61;100.00
11198;BME280;5655;48.744;9.162;2023-05-12T00:38:49;95743.94;;;12.64;100.00
11198;BME280;5655;48.744;9.162;2023-05-12T00:41:14;95745.81;;;12.74;100.00
11198;BME280;5655;48.744;9.162;2023-05-12T00:43:40;95739.00;;;12.52;100.00
11198;BME280;5655;48.744;9.162;2023-05-12T00:46:05;95754.31;;;12.62;100.00
11198;BME280;5655;48.744;9.162;2023-05-12T00:48:31;95745.84;;;12.60;100.00
11198;BME280;5655;48.744;9.162;2023-05-12T00:50:57;95749.72;;;12.59;100.00
11198;BME280;5655;48.744;9.162;2023-05-12T00:53:23;95747.03;;;12.59;100.00
11198;BME280;5655;48.744;9.162;2023-05-12T00:55:48;95751.94;;;12.74;100.00
11198;BME280;5655;48.744;9.162;2023-05-12T00:58:14;95747.00;;;12.62;100.00
11198;BME280;5655;48.744;9.162;2023-05-12T01:00:39;95752.03;;;12.53;100.00
11198;BME280;5655;48.744;9.162;2023-05-12T01:03:04;95755.13;;;12.48;100.00
11198;BME280;5655;48.744;9.162;2023-05-12T01:05:35;95759.66;;;12.65;100.00
11198;BME280;5655;48.744;9.162;2023-05-12T01:08:02;95747.41;;;12.61;100.00
11198;BME280;5655;48.744;9.162;2023-05-12T01:10:27;95760.88;;;12.50;100.00
11198;BME280;5655;48.744;9.162;2023-05-12T01:12:52;95757.38;;;12.57;100.00
11198;BME280;5655;48.744;9.162;2023-05-12T01:15:18;95760.47;;;12.59;100.00
11198;BME280;5655;48.744;9.162;2023-05-12T01:17:50;95765.00;;;12.69;100.00
11198;BME280;5655;48.744;9.162;2023-05-12T01:20:17;95765.06;;;12.55;100.00
11198;BME280;5655;48.744;9.162;2023-05-12T01:22:45;95761.56;;;12.65;100.00
11198;BME280;5655;48.744;9.162;2023-05-12T01:25:13;95770.34;;;12.76;100.00
11198;BME280;5655;48.744;9.162;2023-05-12T01:27:39;95767.31;;;12.70;100.00
11198;BME280;5655;48.744;9.162;2023-05-12T01:30:05;95765.75;;;12.73;100.00
11198;BME280;5655;48.744;9.162;2023-05-12T01:32:32;95768.06;;;12.71;100.00
11198;BME280;5655;48.744;9.162;2023-05-12T01:34:57;95761.94;;;12.67;100.00
11198;BME280;5655;48.744;9.162;2023-05-12T01:37:22;95767.72;;;12.62;100.00
11198;BME280;5655;48.744;9.162;2023-05-12T01:39:51;95764.19;;;12.79;100.00
11198;BME280;5655;48.744;9.162;2023-05-12T01:42:16;95764.66;;;12.63;100.00
11198;BME280;5655;48.744;9.162;2023-05-12T01:44:41;95755.09;;;12.55;100.00
11198;BME280;5655;48.744;9.162;2023-05-12T01:47:07;95762.75;;;12.64;100.00
11198;BME280;5655;48.744;9.162;2023-05-12T01:49:34;95775.78;;;12.62;100.00
11198;BME280;5655;48.744;9.162;2023-05-12T01:51:59;95770.78;;;12.67;100.00
11198;BME280;5655;48.744;9.162;2023-05-12T01:54:24;95770.03;;;12.63;100.00
11198;BME280;5655;48.744;9.162;2023-05-12T01:56:50;95772.66;;;12.74;100.00
11198;BME280;5655;48.744;9.162;2023-05-12T01:59:15;95770.41;;;12.62;100.00
11198;BME280;5655;48.744;9.162;2023-05-12T02:01:40;95770.00;;;12.70;100.00
11198;BME280;5655;48.744;9.162;2023-05-12T02:04:06;95764.97;;;12.80;100.00
11198;BME280;5655;48.744;9.162;2023-05-12T02:06:32;95775.78;;;12.62;100.00
11198;BME280;5655;48.744;9.162;2023-05-12T02:08:58;95773.06;;;12.69;100.00
11198;BME280;5655;48.744;9.162;2023-05-12T02:11:23;95774.28;;;12.54;100.00
11198;BME280;5655;48.744;9.162;2023-05-12T02:13:49;95771.56;;;12.61;100.00
11198;BME280;5655;48.744;9.162;2023-05-12T02:16:14;95779.59;;;12.64;100.00
11198;BME280;5655;48.744;9.162;2023-05-12T02:18:39;95775.72;;;12.76;100.00
11198;BME280;5655;48.744;9.162;2023-05-12T02:21:05;95771.84;;;12.77;100.00
11198;BME280;5655;48.744;9.162;2023-05-12T02:23:30;95776.59;;;12.55;100.00
11198;BME280;5655;48.744;9.162;2023-05-12T02:25:55;95771.16;;;12.66;100.00
11198;BME280;5655;48.744;9.162;2023-05-12T02:28:21;95771.19;;;12.59;100.00
11198;BME280;5655;48.744;9.162;2023-05-12T02:30:48;95771.22;;;12.45;100.00
11198;BME280;5655;48.744;9.162;2023-05-12T02:33:17;95771.97;;;12.59;100.00
11198;BME280;5655;48.744;9.162;2023-05-12T02:35:43;95778.06;;;12.60;100.00
11198;BME280;5655;48.744;9.162;2023-05-12T02:38:09;95773.88;;;12.52;100.00
11198;BME280;5655;48.744;9.162;2023-05-12T02:40:34;95776.56;;;12.52;100.00
11198;BME280;5655;48.744;9.162;2023-05-12T02:42:59;95774.66;;;12.52;100.00
11198;BME280;5655;48.744;9.162;2023-05-12T02:45:25;95780.78;;;12.53;100.00
11198;BME280;5655;48.744;9.162;2023-05-12T02:47:50;95774.28;;;12.54;100.00
11198;BME280;5655;48.744;9.162;2023-05-12T02:50:16;95778.91;;;12.46;100.00
11198;BME280;5655;48.744;9.162;2023-05-12T02:52:41;95778.16;;;12.42;100.00
11198;BME280;5655;48.744;9.162;2023-05-12T02:55:07;95783.50;;;12.39;100.00
11198;BME280;5655;48.744;9.162;2023-05-12T02:57:32;95781.63;;;12.28;100.00
11198;BME280;5655;48.744;9.162;2023-05-12T03:00:02;95794.25;;;12.39;100.00
11198;BME280;5655;48.744;9.162;2023-05-12T03:02:31;95793.50;;;12.42;100.00
11198;BME280;5655;48.744;9.162;2023-05-12T03:04:57;95787.34;;;12.41;100.00
11198;BME280;5655;48.744;9.162;2023-05-12T03:07:22;95790.41;;;12.40;100.00
11198;BME280;5655;48.744;9.162;2023-05-12T03:09:47;95795.00;;;12.46;100.00
11198;BME280;5655;48.744;9.162;2023-05-12T03:12:13;95797.28;;;12.48;100.00
11198;BME280;5655;48.744;9.162;2023-05-12T03:14:38;95801.94;;;12.37;100.00
11198;BME280;5655;48.744;9.162;2023-05-12T03:17:03;95799.63;;;12.42;100.00
11198;BME280;5655;48.744;9.162;2023-05-12T03:19:29;95800.38;;;12.39;100.00
11198;BME280;5655;48.744;9.162;2023-05-12T03:21:54;95809.22;;;12.33;100.00
11198;BME280;5655;48.744;9.162;2023-05-12T03:24:20;95807.31;;;12.30;100.00
11198;BME280;5655;48.744;9.162;2023-05-12T03:26:45;95811.88;;;12.40;100.00
11198;BME280;5655;48.744;9.162;2023-05-12T03:29:10;95800.72;;;12.52;100.00
11198;BME280;5655;48.744;9.162;2023-05-12T03:31:36;95800.41;;;12.36;100.00
11198;BME280;5655;48.744;9.162;2023-05-12T03:34:01;95792.59;;;12.77;100.00
11198;BME280;5655;48.744;9.162;2023-05-12T03:36:26;95799.50;;;12.81;100.00
11198;BME280;5655;48.744;9.162;2023-05-12T03:38:52;95791.72;;;13.01;100.00
11198;BME280;5655;48.744;9.162;2023-05-12T03:41:17;95792.13;;;12.92;100.00
11198;BME280;5655;48.744;9.162;2023-05-12T03:43:42;95790.13;;;13.17;100.00
11198;BME280;5655;48.744;9.162;2023-05-12T03:46:07;95784.00;;;13.13;100.00
11198;BME280;5655;48.744;9.162;2023-05-12T03:48:33;95782.75;;;13.32;100.00
11198;BME280;5655;48.744;9.162;2023-05-12T03:50:58;95787.06;;;13.15;100.00
11198;BME280;5655;48.744;9.162;2023-05-12T03:53:24;95783.19;;;13.24;100.00
11198;BME280;5655;48.744;9.162;2023-05-12T03:55:49;95777.09;;;13.12;100.00
11198;BME280;5655;48.744;9.162;2023-05-12T03:58:15;95779.44;;;13.00;100.00
11198;BME280;5655;48.744;9.162;2023-05-12T04:00:40;95762.63;;;12.89;100.00
11198;BME280;5655;48.744;9.162;2023-05-12T04:03:06;95772.47;;;13.16;100.00
11198;BME280;5655;48.744;9.162;2023-05-12T04:05:31;95765.22;;;12.99;100.00
11198;BME280;5655;48.744;9.162;2023-05-12T04:07:56;95771.44;;;12.89;100.00
11198;BME280;5655;48.744;9.162;2023-05-12T04:10:22;95774.53;;;12.77;100.00
11198;BME280;5655;48.744;9.162;2023-05-12T04:12:47;95770.00;;;12.67;100.00
11198;BME280;5655;48.744;9.162;2023-05-12T04:15:12;95768.91;;;12.54;100.00
11198;BME280;5655;48.744;9.162;2023-05-12T04:17:39;95768.16;;;12.50;100.00
11198;BME280;5655;48.744;9.162;2023-05-12T04:20:05;95774.22;;;12.68;100.00
11198;BME280;5655;48.744;9.162;2023-05-12T04:22:31;95767.41;;;12.39;100.00
11198;BME280;5655;48.744;9.162;2023-05-12T04:24:56;95782.75;;;12.42;100.00
11198;BME280;5655;48.744;9.162;2023-05-12T04:27:21;95777.75;;;12.51;100.00
11198;BME280;5655;48.744;9.162;2023-05-12T04:29:46;95792.72;;;12.45;100.00
11198;BME280;5655;48.744;9.162;2023-05-12T04:32:12;95792.31;;;12.43;100.00
11198;BME280;5655;48.744;9.162;2023-05-12T04:34:37;95798.09;;;12.38;100.00
11198;BME280;5655;48.744;9.162;2023-05-12T04:37:02;95790.88;;;12.20;100.00
11198;BME280;5655;48.744;9.162;2023-05-12T04:39:28;95799.63;;;12.39;100.00
11198;BME280;5655;48.744;9.162;2023-05-12T04:41:53;95798.13;;;12.23;100.00
11198;BME280;5655;48.744;9.162;2023-05-12T04:44:18;95801.19;;;12.29;100.00
11198;BME280;5655;48.744;9.162;2023-05-12T04:46:44;95806.19;;;12.13;100.00
11198;BME280;5655;48.744;9.162;2023-05-12T04:49:09;95808.88;;;12.06;100.00
11198;BME280;5655;48.744;9.162;2023-05-12T04:51:35;95814.25;;;12.16;100.00
11198;BME280;5655;48.744;9.162;2023-05-12T04:54:07;95814.22;;;12.23;100.00
11198;BME280;5655;48.744;9.162;2023-05-12T04:56:33;95818.75;;;12.51;100.00
11198;BME280;5655;48.744;9.162;2023-05-12T04:58:59;95823.38;;;12.51;100.00
11198;BME280;5655;48.744;9.162;2023-05-12T05:01:24;95815.75;;;12.32;100.00
11198;BME280;5655;48.744;9.162;2023-05-12T05:03:49;95815.38;;;12.30;100.00
11198;BME280;5655;48.744;9.162;2023-05-12T05:06:15;95814.25;;;12.06;100.00
11198;BME280;5655;48.744;9.162;2023-05-12T05:08:40;95814.25;;;12.16;100.00
11198;BME280;5655;48.744;9.162;2023-05-12T05:11:06;95815.75;;;12.17;100.00
11198;BME280;5655;48.744;9.162;2023-05-12T05:13:31;95823.41;;;12.26;100.00
11198;BME280;5655;48.744;9.162;2023-05-12T05:15:56;95815.78;;;12.07;100.00
11198;BME280;5655;48.744;9.162;2023-05-12T05:18:22;95818.03;;;12.26;100.00
11198;BME280;5655;48.744;9.162;2023-05-12T05:20:47;95820.34;;;12.31;100.00
11198;BME280;5655;48.744;9.162;2023-05-12T05:23:12;95813.81;;;12.36;100.00
11198;BME280;5655;48.744;9.162;2023-05-12T05:25:38;95818.41;;;12.35;100.00
11198;BME280;5655;48.744;9.162;2023-05-12T05:28:03;95824.91;;;12.48;100.00
11198;BME280;5655;48.744;9.162;2023-05-12T05:30:29;95822.56;;;12.57;100.00
11198;BME280;5655;48.744;9.162;2023-05-12T05:32:54;95828.72;;;12.58;100.00
11198;BME280;5655;48.744;9.162;2023-05-12T05:35:19;95824.84;;;12.77;100.00
11198;BME280;5655;48.744;9.162;2023-05-12T05:37:45;95826.81;;;12.51;100.00
11198;BME280;5655;48.744;9.162;2023-05-12T05:40:11;95830.28;;;12.55;100.00
11198;BME280;5655;48.744;9.162;2023-05-12T05:42:36;95830.25;;;12.59;100.00
11198;BME280;5655;48.744;9.162;2023-05-12T05:45:02;95834.44;;;12.60;100.00
11198;BME280;5655;48.744;9.162;2023-05-12T05:47:27;95833.66;;;12.70;100.00
11198;BME280;5655;48.744;9.162;2023-05-12T05:49:53;95828.66;;;12.79;100.00
11198;BME280;5655;48.744;9.162;2023-05-12T05:52:18;95825.59;;;12.70;100.00
11198;BME280;5655;48.744;9.162;2023-05-12T05:54:44;95822.94;;;12.66;100.00
11198;BME280;5655;48.744;9.162;2023-05-12T05:57:09;95830.25;;;12.52;100.00
11198;BME280;5655;48.744;9.162;2023-05-12T05:59:34;95819.91;;;12.54;100.00
11198;BME280;5655;48.744;9.162;2023-05-12T06:01:59;95831.75;;;12.67;100.00
11198;BME280;5655;48.744;9.162;2023-05-12T06:04:25;95831.72;;;12.74;100.00
11198;BME280;5655;48.744;9.162;2023-05-12T06:06:50;95833.28;;;12.68;100.00
11198;BME280;5655;48.744;9.162;2023-05-12T06:09:15;95831.34;;;12.76;100.00
11198;BME280;5655;48.744;9.162;2023-05-12T06:11:41;95826.41;;;12.60;100.00
11198;BME280;5655;48.744;9.162;2023-05-12T06:14:06;95833.28;;;12.71;100.00
11198;BME280;5655;48.744;9.162;2023-05-12T06:16:31;95828.25;;;12.84;100.00
11198;BME280;5655;48.744;9.162;2023-05-12T06:18:57;95833.69;;;12.63;100.00
11198;BME280;5655;48.744;9.162;2023-05-12T06:21:22;95830.19;;;12.73;100.00
11198;BME280;5655;48.744;9.162;2023-05-12T06:23:47;95830.53;;;12.82;100.00
11198;BME280;5655;48.744;9.162;2023-05-12T06:26:13;95832.91;;;12.66;100.00
11198;BME280;5655;48.744;9.162;2023-05-12T06:28:38;95830.16;;;12.84;100.00
11198;BME280;5655;48.744;9.162;2023-05-12T06:31:07;95834.38;;;12.88;100.00
11198;BME280;5655;48.744;9.162;2023-05-12T06:33:35;95830.19;;;12.73;100.00
11198;BME280;5655;48.744;9.162;2023-05-12T06:36:00;95838.59;;;12.82;100.00
11198;BME280;5655;48.744;9.162;2023-05-12T06:38:26;95834.66;;;13.08;100.00
11198;BME280;5655;48.744;9.162;2023-05-12T06:40:51;95834.63;;;13.22;100.00
11198;BME280;5655;48.744;9.162;2023-05-12T06:43:16;95833.13;;;13.14;100.00
11198;BME280;5655;48.744;9.162;2023-05-12T06:45:42;95841.97;;;13.04;100.00
11198;BME280;5655;48.744;9.162;2023-05-12T06:48:08;95830.47;;;13.07;100.00
11198;BME280;5655;48.744;9.162;2023-05-12T06:50:34;95830.81;;;13.20;100.00
11198;BME280;5655;48.744;9.162;2023-05-12T06:52:59;95831.56;;;13.16;100.00
11198;BME280;5655;48.744;9.162;2023-05-12T06:55:25;95834.63;;;13.22;100.00
11198;BME280;5655;48.744;9.162;2023-05-12T06:57:50;95836.56;;;13.18;100.00
11198;BME280;5655;48.744;9.162;2023-05-12T07:00:22;95838.88;;;13.12;100.00
11198;BME280;5655;48.744;9.162;2023-05-12T07:02:48;95838.09;;;13.19;100.00
11198;BME280;5655;48.744;9.162;2023-05-12T07:05:13;95842.22;;;13.41;100.00
11198;BME280;5655;48.744;9.162;2023-05-12T07:07:39;95834.13;;;13.45;100.00
11198;BME280;5655;48.744;9.162;2023-05-12T07:10:05;95837.59;;;13.38;100.00
11198;BME280;5655;48.744;9.162;2023-05-12T07:12:30;95838.03;;;13.30;100.00
11198;BME280;5655;48.744;9.162;2023-05-12T07:14:56;95833.75;;;13.39;100.00
11198;BME280;5655;48.744;9.162;2023-05-12T07:17:21;95835.31;;;13.37;100.00
11198;BME280;5655;48.744;9.162;2023-05-12T07:19:47;95834.56;;;13.33;100.00
11198;BME280;5655;48.744;9.162;2023-05-12T07:22:12;95826.50;;;13.33;100.00
11198;BME280;5655;48.744;9.162;2023-05-12T07:24:38;95834.34;;;13.72;100.00
11198;BME280;5655;48.744;9.162;2023-05-12T07:27:03;95830.13;;;13.67;100.00
11198;BME280;5655;48.744;9.162;2023-05-12T07:29:29;95837.31;;;13.84;100.00
11198;BME280;5655;48.744;9.162;2023-05-12T07:31:54;95828.84;;;13.82;100.00
11198;BME280;5655;48.744;9.162;2023-05-12T07:34:19;95833.38;;;13.96;100.00
11198;BME280;5655;48.744;9.162;2023-05-12T07:36:45;95826.53;;;13.84;100.00
11198;BME280;5655;48.744;9.162;2023-05-12T07:39:11;95833.50;;;13.78;100.00
11198;BME280;5655;48.744;9.162;2023-05-12T07:41:39;95830.47;;;13.73;100.00
11198;BME280;5655;48.744;9.162;2023-05-12T07:44:05;95834.09;;;14.00;100.00
11198;BME280;5655;48.744;9.162;2023-05-12T07:46:31;95824.94;;;13.90;100.00
11198;BME280;5655;48.744;9.162;2023-05-12T07:48:56;95829.41;;;14.07;100.00
11198;BME280;5655;48.744;9.162;2023-05-12T07:51:22;95821.84;;;13.95;100.00
11198;BME280;5655;48.744;9.162;2023-05-12T07:53:47;95820.91;;;14.13;100.00
11198;BME280;5655;48.744;9.162;2023-05-12T07:56:12;95829.44;;;14.04;100.00
11198;BME280;5655;48.744;9.162;2023-05-12T07:58:37;95822.38;;;13.73;100.00
11198;BME280;5655;48.744;9.162;2023-05-12T08:01:03;95827.72;;;14.28;100.00
11198;BME280;5655;48.744;9.162;2023-05-12T08:03:31;95820.59;;;14.48;100.00
11198;BME280;5655;48.744;9.162;2023-05-12T08:05:57;95822.19;;;14.42;100.00
11198;BME280;5655;48.744;9.162;2023-05-12T08:08:22;95832.09;;;14.52;100.00
11198;BME280;5655;48.744;9.162;2023-05-12T08:10:48;95828.78;;;14.34;100.00
11198;BME280;5655;48.744;9.162;2023-05-12T08:13:13;95826.00;;;14.48;100.00
11198;BME280;5655;48.744;9.162;2023-05-12T08:15:38;95832.16;;;14.48;100.00
11198;BME280;5655;48.744;9.162;2023-05-12T08:18:03;95832.88;;;14.52;100.00
11198;BME280;5655;48.744;9.162;2023-05-12T08:20:29;95827.75;;;14.21;100.00
11198;BME280;5655;48.744;9.162;2023-05-12T08:22:55;95829.75;;;14.58;100.00
11198;BME280;5655;48.744;9.162;2023-05-12T08:25:20;95828.69;;;14.48;100.00
11198;BME280;5655;48.744;9.162;2023-05-12T08:27:46;95826.72;;;14.52;100.00
11198;BME280;5655;48.744;9.162;2023-05-12T08:30:11;95817.47;;;14.53;100.00
11198;BME280;5655;48.744;9.162;2023-05-12T08:32:37;95823.59;;;14.57;100.00
11198;BME280;5655;48.744;9.162;2023-05-12T08:35:02;95828.88;;;14.64;100.00
11198;BME280;5655;48.744;9.162;2023-05-12T08:37:28;95827.97;;;14.44;100.00
11198;BME280;5655;48.744;9.162;2023-05-12T08:39:54;95840.31;;;14.38;100.00
11198;BME280;5655;48.744;9.162;2023-05-12T08:44:58;95836.72;;;14.51;100.00
11198;BME280;5655;48.744;9.162;2023-05-12T08:47:25;95840.38;;;14.68;100.00
11198;BME280;5655;48.744;9.162;2023-05-12T08:50:01;95835.72;;;14.72;100.00
11198;BME280;5655;48.744;9.162;2023-05-12T08:52:34;95844.78;;;14.89;100.00
11198;BME280;5655;48.744;9.162;2023-05-12T08:55:00;95845.88;;;14.95;100.00
11198;BME280;5655;48.744;9.162;2023-05-12T08:57:26;95849.63;;;14.71;100.00
11198;BME280;5655;48.744;9.162;2023-05-12T08:59:53;95846.78;;;14.81;100.00
11198;BME280;5655;48.744;9.162;2023-05-12T09:02:20;95839.88;;;14.80;100.00
11198;BME280;5655;48.744;9.162;2023-05-12T09:04:47;95854.31;;;14.97;100.00
11198;BME280;5655;48.744;9.162;2023-05-12T09:07:13;95848.84;;;14.70;100.00
11198;BME280;5655;48.744;9.162;2023-05-12T09:09:42;95838.78;;;14.74;100.00
11198;BME280;5655;48.744;9.162;2023-05-12T09:12:11;95842.69;;;14.70;100.00
11198;BME280;5655;48.744;9.162;2023-05-12T09:14:39;95847.13;;;14.87;100.00
11198;BME280;5655;48.744;9.162;2023-05-12T09:17:06;95849.44;;;14.88;100.00
11198;BME280;5655;48.744;9.162;2023-05-12T09:19:31;95850.72;;;15.07;100.00
11198;BME280;5655;48.744;9.162;2023-05-12T09:21:59;95845.06;;;14.98;100.00
11198;BME280;5655;48.744;9.162;2023-05-12T09:24:38;95839.63;;;15.02;100.00
11198;BME280;5655;48.744;9.162;2023-05-12T09:27:04;95849.03;;;15.20;100.00
11198;BME280;5655;48.744;9.162;2023-05-12T09:29:30;95839.38;;;15.53;100.00
11198;BME280;5655;48.744;9.162;2023-05-12T09:32:01;95848.63;;;15.52;100.00
11198;BME280;5655;48.744;9.162;2023-05-12T09:34:33;95845.38;;;15.34;100.00
11198;BME280;5655;48.744;9.162;2023-05-12T09:37:03;95849.59;;;15.35;100.00
11198;BME280;5655;48.744;9.162;2023-05-12T09:39:30;95861.69;;;15.54;100.00
11198;BME280;5655;48.744;9.162;2023-05-12T09:41:56;95847.91;;;15.44;100.00
11198;BME280;5655;48.744;9.162;2023-05-12T09:44:23;95844.72;;;15.57;100.00
11198;BME280;5655;48.744;9.162;2023-05-12T09:46:48;95853.56;;;15.84;100.00
11198;BME280;5655;48.744;9.162;2023-05-12T09:49:24;95863.78;;;15.96;100.00
11198;BME280;5655;48.744;9.162;2023-05-12T09:51:57;95856.34;;;16.04;100.00
11198;BME280;5655;48.744;9.162;2023-05-12T09:54:29;95859.66;;;15.88;100.00
11198;BME280;5655;48.744;9.162;2023-05-12T09:57:02;95861.31;;;16.05;100.00
11198;BME280;5655;48.744;9.162;2023-05-12T09:59:33;95866.97;;;16.14;100.00
11198;BME280;5655;48.744;9.162;2023-05-12T10:02:01;95859.91;;;15.97;100.00
11198;BME280;5655;48.744;9.162;2023-05-12T10:04:31;95862.31;;;16.15;100.00
11198;BME280;5655;48.744;9.162;2023-05-12T10:07:04;95864.06;;;16.02;100.00
11198;BME280;5655;48.744;9.162;2023-05-12T10:09:33;95858.78;;;15.95;100.00
11198;BME280;5655;48.744;9.162;2023-05-12T10:12:02;95871.59;;;16.14;100.00
11198;BME280;5655;48.744;9.162;2023-05-12T10:14:28;95868.44;;;16.19;100.00
11198;BME280;5655;48.744;9.162;2023-05-12T10:16:56;95862.72;;;15.90;100.00
11198;BME280;5655;48.744;9.162;2023-05-12T10:19:22;95865.81;;;15.88;100.00
11198;BME280;5655;48.744;9.162;2023-05-12T10:21:49;95864.34;;;15.84;100.00
11198;BME280;5655;48.744;9.162;2023-05-12T10:24:15;95860.28;;;15.99;100.00
11198;BME280;5655;48.744;9.162;2023-05-12T10:26:42;95860.00;;;16.17;100.00
11198;BME280;5655;48.744;9.162;2023-05-12T10:29:08;95866.94;;;16.18;100.00
11198;BME280;5655;48.744;9.162;2023-05-12T10:31:34;95871.91;;;16.43;100.00
11198;BME280;5655;48.744;9.162;2023-05-12T10:34:01;95862.69;;;16.17;100.00
11198;BME280;5655;48.744;9.162;2023-05-12T10:36:27;95866.50;;;16.43;100.00
11198;BME280;5655;48.744;9.162;2023-05-12T10:38:53;95867.03;;;16.57;100.00
11198;BME280;5655;48.744;9.162;2023-05-12T10:41:32;95857.94;;;16.48;100.00
11198;BME280;5655;48.744;9.162;2023-05-12T10:43:58;95861.97;;;16.36;100.00
11198;BME280;5655;48.744;9.162;2023-05-12T10:46:24;95860.47;;;16.35;100.00
11198;BME280;5655;48.744;9.162;2023-05-12T10:51:23;95867.03;;;16.57;100.00
11198;BME280;5655;48.744;9.162;2023-05-12T10:53:58;95868.31;;;16.26;100.00
11198;BME280;5655;48.744;9.162;2023-05-12T10:56:30;95861.25;;;16.32;100.00
11198;BME280;5655;48.744;9.162;2023-05-12T10:59:23;95856.13;;;16.18;100.00
11198;BME280;5655;48.744;9.162;2023-05-12T11:02:11;95856.81;;;16.22;100.00
11198;BME280;5655;48.744;9.162;2023-05-12T11:04:49;95844.22;;;15.88;100.00
11198;BME280;5655;48.744;9.162;2023-05-12T11:07:20;95845.06;;;15.85;100.00
11198;BME280;5655;48.744;9.162;2023-05-12T11:09:46;95826.88;;;15.63;100.00
11198;BME280;5655;48.744;9.162;2023-05-12T11:12:12;95829.31;;;15.57;100.00
11198;BME280;5655;48.744;9.162;2023-05-12T11:14:41;95824.16;;;15.36;100.00
11198;BME280;5655;48.744;9.162;2023-05-12T11:17:07;95828.81;;;15.32;100.00
11198;BME280;5655;48.744;9.162;2023-05-12T11:19:34;95823.94;;;14.93;100.00
11198;BME280;5655;48.744;9.162;2023-05-12T11:22:07;95834.22;;;15.32;100.00
11198;BME280;5655;48.744;9.162;2023-05-12T11:24:34;95829.31;;;15.27;100.00
11198;BME280;5655;48.744;9.162;2023-05-12T11:27:00;95834.88;;;15.13;100.00
11198;BME280;5655;48.744;9.162;2023-05-12T11:29:25;95839.78;;;15.21;100.00
11198;BME280;5655;48.744;9.162;2023-05-12T11:31:50;95837.47;;;15.20;100.00
11198;BME280;5655;48.744;9.162;2023-05-12T11:34:21;95830.59;;;15.15;100.00
11198;BME280;5655;48.744;9.162;2023-05-12T11:36:47;95835.16;;;15.22;100.00
11198;BME280;5655;48.744;9.162;2023-05-12T11:39:30;95820.69;;;15.09;100.00
11198;BME280;5655;48.744;9.162;2023-05-12T11:42:02;95826.84;;;15.36;100.00
11198;BME280;5655;48.744;9.162;2023-05-12T11:44:28;95821.56;;;15.29;100.00
11198;BME280;5655;48.744;9.162;2023-05-12T11:47:00;95819.03;;;15.45;100.00
11198;BME280;5655;48.744;9.162;2023-05-12T11:49:28;95822.72;;;15.28;100.00
11198;BME280;5655;48.744;9.162;2023-05-12T11:51:55;95820.00;;;15.31;100.00
11198;BME280;5655;48.744;9.162;2023-05-12T11:54:21;95821.63;;;15.25;100.00
11198;BME280;5655;48.744;9.162;2023-05-12T11:56:51;95829.19;;;15.34;100.00
11198;BME280;5655;48.744;9.162;2023-05-12T11:59:31;95843.13;;;14.98;100.00
11198;BME280;5655;48.744;9.162;2023-05-12T12:01:59;95847.69;;;15.02;100.00
11198;BME280;5655;48.744;9.162;2023-05-12T12:04:38;95837.19;;;15.41;100.00
11198;BME280;5655;48.744;9.162;2023-05-12T12:07:08;95835.19;;;15.18;100.00
11198;BME280;5655;48.744;9.162;2023-05-12T12:09:37;95829.81;;;15.15;100.00
11198;BME280;5655;48.744;9.162;2023-05-12T12:12:06;95819.97;;;15.05;100.00
11198;BME280;5655;48.744;9.162;2023-05-12T12:14:33;95830.78;;;15.01;100.00
11198;BME280;5655;48.744;9.162;2023-05-12T12:17:00;95832.28;;;15.06;100.00
11198;BME280;5655;48.744;9.162;2023-05-12T12:19:25;95833.50;;;15.28;100.00
11198;BME280;5655;48.744;9.162;2023-05-12T12:21:55;95830.47;;;15.26;100.00
11198;BME280;5655;48.744;9.162;2023-05-12T12:24:21;95833.22;;;15.49;100.00
11198;BME280;5655;48.744;9.162;2023-05-12T12:26:46;95841.06;;;15.70;100.00
11198;BME280;5655;48.744;9.162;2023-05-12T12:29:11;95829.19;;;15.64;100.00
11198;BME280;5655;48.744;9.162;2023-05-12T12:31:37;95840.56;;;15.75;100.00
11198;BME280;5655;48.744;9.162;2023-05-12T12:34:03;95835.03;;;15.86;100.00
11198;BME280;5655;48.744;9.162;2023-05-12T12:36:28;95832.06;;;16.04;100.00
11198;BME280;5655;48.744;9.162;2023-05-12T12:38:54;95841.06;;;15.94;100.00
11198;BME280;5655;48.744;9.162;2023-05-12T12:41:19;95826.13;;;16.12;100.00
11198;BME280;5655;48.744;9.162;2023-05-12T12:43:45;95840.25;;;16.20;100.00
11198;BME280;5655;48.744;9.162;2023-05-12T12:46:11;95838.47;;;16.56;100.00
11198;BME280;5655;48.744;9.162;2023-05-12T12:48:36;95857.03;;;16.54;100.00
11198;BME280;5655;48.744;9.162;2023-05-12T12:51:01;95851.59;;;16.58;100.00
11198;BME280;5655;48.744;9.162;2023-05-12T12:53:27;95847.13;;;16.48;100.00
11198;BME280;5655;48.744;9.162;2023-05-12T12:55:52;95859.41;;;16.52;100.00
11198;BME280;5655;48.744;9.162;2023-05-12T12:58:18;95851.16;;;16.36;100.00
11198;BME280;5655;48.744;9.162;2023-05-12T13:00:43;95851.88;;;16.40;100.00
11198;BME280;5655;48.744;9.162;2023-05-12T13:03:09;95859.72;;;16.77;100.00